createdAt,value
2023-04-16T00:02:03.890Z,62.24
2023-04-16T00:04:31.259Z,62.08
2023-04-16T00:06:58.142Z,62.05
2023-04-16T00:09:25.066Z,62.32
2023-04-16T00:11:53.246Z,61.18
2023-04-16T00:14:20.331Z,61.04
2023-04-16T00:16:47.242Z,60.89
2023-04-16T00:19:14.256Z,60.72
2023-04-16T00:21:41.283Z,60.41
2023-04-16T00:24:08.385Z,60.75
2023-04-16T00:26:35.257Z,60.79
2023-04-16T00:29:02.499Z,61.27
2023-04-16T00:31:31.851Z,61.05
2023-04-16T00:33:59.286Z,60.74
2023-04-16T00:36:28.089Z,60.18
2023-04-16T00:38:56.454Z,60.29
2023-04-16T00:41:23.753Z,60.46
2023-04-16T00:43:51.817Z,60.54
2023-04-16T00:46:23.430Z,60.35
2023-04-16T00:48:52.276Z,60.44
2023-04-16T00:51:21.449Z,60.81
2023-04-16T00:53:50.474Z,60.75
2023-04-16T00:56:18.118Z,60.62
2023-04-16T00:58:45.230Z,60.54
2023-04-16T01:01:14.404Z,60.38
2023-04-16T01:03:45.913Z,60.76
2023-04-16T01:06:13.645Z,60.87
2023-04-16T01:08:40.817Z,60.29
2023-04-16T01:11:08.033Z,60.77
2023-04-16T01:13:39.362Z,60.04
2023-04-16T01:16:08.272Z,60.28
2023-04-16T01:18:35.823Z,60.21
2023-04-16T01:21:03.997Z,60.06
2023-04-16T01:23:31.368Z,60.40
2023-04-16T01:25:58.313Z,60.95
2023-04-16T01:28:25.421Z,60.83
2023-04-16T01:30:52.410Z,61.28
2023-04-16T01:33:35.891Z,60.75
2023-04-16T01:36:03.006Z,60.70
2023-04-16T01:38:29.933Z,60.44
2023-04-16T01:41:00.005Z,61.21
2023-04-16T01:43:26.952Z,61.34
2023-04-16T01:46:11.567Z,62.02
2023-04-16T01:48:38.608Z,61.70
2023-04-16T01:51:05.832Z,61.94
2023-04-16T01:53:32.736Z,61.99
2023-04-16T01:55:59.800Z,61.72
2023-04-16T01:58:29.747Z,62.16
2023-04-16T02:00:56.897Z,61.73
2023-04-16T02:03:25.011Z,62.03
2023-04-16T02:05:53.077Z,62.27
2023-04-16T02:08:20.001Z,61.73
2023-04-16T02:10:47.913Z,61.69
2023-04-16T02:13:15.887Z,62.69
2023-04-16T02:15:49.996Z,62.40
2023-04-16T02:18:22.749Z,62.22
2023-04-16T02:20:50.010Z,62.88
2023-04-16T02:23:17.829Z,63.22
2023-04-16T02:25:47.343Z,62.80
2023-04-16T02:28:17.055Z,62.54
2023-04-16T02:30:46.088Z,62.36
2023-04-16T02:33:15.367Z,62.31
2023-04-16T02:35:53.267Z,62.37
2023-04-16T02:38:20.406Z,63.43
2023-04-16T02:40:47.254Z,63.96
2023-04-16T02:43:15.626Z,64.87
2023-04-16T02:45:42.613Z,65.01
2023-04-16T02:48:10.068Z,65.24
2023-04-16T02:50:37.019Z,65.75
2023-04-16T02:53:04.411Z,66.35
2023-04-16T02:55:31.273Z,66.50
2023-04-16T02:57:58.177Z,66.44
2023-04-16T03:00:25.073Z,66.56
2023-04-16T03:02:52.055Z,67.20
2023-04-16T03:05:19.200Z,67.11
2023-04-16T03:07:46.871Z,67.01
2023-04-16T03:10:14.967Z,66.74
2023-04-16T03:12:41.931Z,66.34
2023-04-16T03:15:09.283Z,66.24
2023-04-16T03:17:36.366Z,66.47
2023-04-16T03:20:04.246Z,66.01
2023-04-16T03:22:31.788Z,65.48
2023-04-16T03:24:58.660Z,64.80
2023-04-16T03:27:25.691Z,64.79
2023-04-16T03:29:52.988Z,66.28
2023-04-16T03:32:19.930Z,66.72
2023-04-16T03:34:46.909Z,66.43
2023-04-16T03:37:13.832Z,66.68
2023-04-16T03:39:40.957Z,66.38
2023-04-16T03:42:09.249Z,66.32
2023-04-16T03:44:36.295Z,65.95
2023-04-16T03:47:03.245Z,65.61
2023-04-16T03:49:30.292Z,65.48
2023-04-16T03:51:58.224Z,65.39
2023-04-16T03:54:26.168Z,65.34
2023-04-16T03:57:03.410Z,65.23
2023-04-16T03:59:30.495Z,65.04
2023-04-16T04:01:57.558Z,64.74
2023-04-16T04:04:24.628Z,64.16
2023-04-16T04:06:51.543Z,63.88
2023-04-16T04:09:18.508Z,63.48
2023-04-16T04:11:45.634Z,63.54
2023-04-16T04:14:12.559Z,63.35
2023-04-16T04:16:39.472Z,63.20
2023-04-16T04:19:06.466Z,63.02
2023-04-16T04:21:33.358Z,63.26
2023-04-16T04:24:00.257Z,63.11
2023-04-16T04:26:29.558Z,62.96
2023-04-16T04:28:57.067Z,62.63
2023-04-16T04:31:24.042Z,62.03
2023-04-16T04:33:51.114Z,61.70
2023-04-16T04:36:18.129Z,61.54
2023-04-16T04:38:45.098Z,61.95
2023-04-16T04:41:11.965Z,61.73
2023-04-16T04:43:39.311Z,61.76
2023-04-16T04:46:06.637Z,61.12
2023-04-16T04:48:33.605Z,60.93
2023-04-16T04:51:01.237Z,60.62
2023-04-16T04:53:29.175Z,60.09
2023-04-16T04:55:58.675Z,59.73
2023-04-16T04:58:33.047Z,59.10
2023-04-16T05:00:59.986Z,58.57
2023-04-16T05:03:27.008Z,58.32
2023-04-16T05:05:53.983Z,57.81
2023-04-16T05:08:21.180Z,57.45
2023-04-16T05:10:48.239Z,56.80
2023-04-16T05:13:15.209Z,56.05
2023-04-16T05:15:42.027Z,56.06
2023-04-16T05:18:08.916Z,55.15
2023-04-16T05:20:37.924Z,55.13
2023-04-16T05:23:04.844Z,54.46
2023-04-16T05:25:31.786Z,54.53
2023-04-16T05:27:58.740Z,54.55
2023-04-16T05:30:25.611Z,53.91
2023-04-16T05:32:52.475Z,53.54
2023-04-16T05:35:19.445Z,53.40
2023-04-16T05:37:46.356Z,53.66
2023-04-16T05:40:14.444Z,53.84
2023-04-16T05:42:41.544Z,53.86
2023-04-16T05:45:08.939Z,54.04
2023-04-16T05:47:35.917Z,53.19
2023-04-16T05:50:02.967Z,52.99
2023-04-16T05:52:29.760Z,52.75
2023-04-16T05:54:56.650Z,52.00
2023-04-16T05:57:23.535Z,52.07
2023-04-16T05:59:50.464Z,52.28
2023-04-16T06:02:17.425Z,52.38
2023-04-16T06:04:44.390Z,51.62
2023-04-16T06:07:11.200Z,52.17
2023-04-16T06:09:38.200Z,52.32
2023-04-16T06:12:05.558Z,51.91
2023-04-16T06:14:32.495Z,52.19
2023-04-16T06:16:59.394Z,51.79
2023-04-16T06:19:26.310Z,50.55
2023-04-16T06:21:53.527Z,48.93
2023-04-16T06:24:20.789Z,47.05
2023-04-16T06:26:47.601Z,44.22
2023-04-16T06:29:14.472Z,43.06
2023-04-16T06:31:41.721Z,41.98
2023-04-16T06:34:09.356Z,41.77
2023-04-16T06:36:37.670Z,41.39
2023-04-16T06:39:05.059Z,42.10
2023-04-16T06:41:32.116Z,41.89
2023-04-16T06:43:59.004Z,41.72
2023-04-16T06:46:26.082Z,41.83
2023-04-16T06:48:52.906Z,41.55
2023-04-16T06:51:19.894Z,41.74
2023-04-16T06:53:46.738Z,41.89
2023-04-16T06:56:13.569Z,42.10
2023-04-16T06:58:40.511Z,42.34
2023-04-16T07:01:07.530Z,41.83
2023-04-16T07:03:34.729Z,40.36
2023-04-16T07:06:01.820Z,39.36
2023-04-16T07:08:28.708Z,38.88
2023-04-16T07:10:55.714Z,38.30
2023-04-16T07:13:22.566Z,38.25
2023-04-16T07:15:49.434Z,38.64
2023-04-16T07:18:16.868Z,38.35
2023-04-16T07:20:43.780Z,37.40
2023-04-16T07:23:10.815Z,37.75
2023-04-16T07:25:37.748Z,38.12
2023-04-16T07:28:04.712Z,37.67
2023-04-16T07:30:34.351Z,37.69
2023-04-16T07:33:02.964Z,37.13
2023-04-16T07:35:30.881Z,37.43
2023-04-16T07:37:57.742Z,37.84
2023-04-16T07:40:24.733Z,38.39
2023-04-16T07:42:51.749Z,37.98
2023-04-16T07:45:19.352Z,38.20
2023-04-16T07:47:46.294Z,37.59
2023-04-16T07:50:13.516Z,36.80
2023-04-16T07:52:42.467Z,35.85
2023-04-16T07:55:09.636Z,35.77
2023-04-16T07:57:36.794Z,35.59
2023-04-16T08:00:07.108Z,35.26
2023-04-16T08:02:44.596Z,35.32
2023-04-16T08:05:12.625Z,34.76
2023-04-16T08:07:39.497Z,34.36
2023-04-16T08:10:07.054Z,33.93
2023-04-16T08:12:35.931Z,34.00
2023-04-16T08:15:02.910Z,34.26
2023-04-16T08:17:30.147Z,34.38
2023-04-16T08:19:57.229Z,35.07
2023-04-16T08:22:24.144Z,35.31
2023-04-16T08:24:51.048Z,35.47
2023-04-16T08:27:19.913Z,34.30
2023-04-16T08:29:48.019Z,34.63
2023-04-16T08:32:14.921Z,34.24
2023-04-16T08:34:42.223Z,33.48
2023-04-16T08:37:09.491Z,33.12
2023-04-16T08:39:36.719Z,33.83
2023-04-16T08:42:11.274Z,34.33
2023-04-16T08:44:49.071Z,33.46
2023-04-16T08:47:16.538Z,31.43
2023-04-16T08:49:46.323Z,30.34
2023-04-16T08:52:20.419Z,30.15
2023-04-16T08:54:57.415Z,31.25
2023-04-16T08:57:30.142Z,30.23
2023-04-16T08:59:58.529Z,29.69
2023-04-16T09:02:27.018Z,29.48
2023-04-16T09:04:55.009Z,28.07
2023-04-16T09:07:22.423Z,28.91
2023-04-16T09:09:51.796Z,29.13
2023-04-16T09:12:19.308Z,29.03
2023-04-16T09:14:50.523Z,27.90
2023-04-16T09:17:18.814Z,27.45
2023-04-16T09:19:46.499Z,27.20
2023-04-16T09:22:13.535Z,25.75
2023-04-16T09:24:41.962Z,26.33
2023-04-16T09:27:09.190Z,27.27
2023-04-16T09:29:39.025Z,27.15
2023-04-16T09:32:12.461Z,28.00
2023-04-16T09:35:02.633Z,27.96
2023-04-16T09:37:30.876Z,28.93
2023-04-16T09:40:03.572Z,29.20
2023-04-16T09:42:32.348Z,28.97
2023-04-16T09:45:01.975Z,28.14
2023-04-16T09:47:44.698Z,28.15
2023-04-16T09:50:18.235Z,27.93
2023-04-16T09:52:51.326Z,28.03
2023-04-16T09:55:23.797Z,27.04
2023-04-16T09:57:59.959Z,27.32
2023-04-16T10:00:28.793Z,27.87
2023-04-16T10:03:07.939Z,27.92
2023-04-16T10:05:35.176Z,27.72
2023-04-16T10:08:02.328Z,28.21
2023-04-16T10:10:29.858Z,28.21
2023-04-16T10:12:58.062Z,28.04
2023-04-16T10:15:25.760Z,27.78
2023-04-16T10:17:54.267Z,28.28
2023-04-16T10:20:22.722Z,28.37
2023-04-16T10:22:50.023Z,28.85
2023-04-16T10:25:18.448Z,29.14
2023-04-16T10:27:46.020Z,29.09
2023-04-16T10:30:15.673Z,28.61
2023-04-16T10:32:43.214Z,28.55
2023-04-16T10:35:14.926Z,29.96
2023-04-16T10:37:43.272Z,31.42
2023-04-16T10:40:30.436Z,32.64
2023-04-16T10:42:58.618Z,34.05
2023-04-16T10:45:38.327Z,34.44
2023-04-16T10:48:10.025Z,35.07
2023-04-16T10:50:37.731Z,35.93
2023-04-16T10:53:21.267Z,35.83
2023-04-16T10:55:58.973Z,36.63
2023-04-16T10:58:29.959Z,36.40
2023-04-16T11:01:00.644Z,36.85
2023-04-16T11:03:32.301Z,37.16
2023-04-16T11:06:24.337Z,37.12
2023-04-16T11:08:55.057Z,37.46
2023-04-16T11:11:22.539Z,37.26
2023-04-16T11:13:49.664Z,38.28
2023-04-16T11:16:17.323Z,38.59
2023-04-16T11:18:51.083Z,38.75
2023-04-16T11:21:19.485Z,39.76
2023-04-16T11:23:50.922Z,40.46
2023-04-16T11:26:29.277Z,40.97
2023-04-16T11:28:57.152Z,40.75
2023-04-16T11:31:24.893Z,40.85
2023-04-16T11:33:51.929Z,41.33
2023-04-16T11:36:19.016Z,41.73
2023-04-16T11:38:47.000Z,42.42
2023-04-16T11:41:19.926Z,42.65
2023-04-16T11:43:46.810Z,43.16
2023-04-16T11:46:24.575Z,42.87
2023-04-16T11:48:55.648Z,42.39
2023-04-16T11:51:23.715Z,41.89
2023-04-16T11:53:55.016Z,41.66
2023-04-16T11:56:29.585Z,41.45
2023-04-16T11:59:12.691Z,40.85
2023-04-16T12:01:41.604Z,40.01
2023-04-16T12:04:09.453Z,39.59
2023-04-16T12:06:36.749Z,38.42
2023-04-16T12:09:23.926Z,37.52
2023-04-16T12:11:50.895Z,37.21
2023-04-16T12:14:17.862Z,36.63
2023-04-16T12:16:44.954Z,36.29
2023-04-16T12:19:13.423Z,36.18
2023-04-16T12:21:41.698Z,36.78
2023-04-16T12:24:10.955Z,36.31
2023-04-16T12:26:48.931Z,37.25
2023-04-16T12:29:23.320Z,37.67
2023-04-16T12:31:51.609Z,38.79
2023-04-16T12:34:20.007Z,39.03
2023-04-16T12:36:48.611Z,39.33
2023-04-16T12:39:16.576Z,38.73
2023-04-16T12:41:44.939Z,39.75
2023-04-16T12:44:18.010Z,39.82
2023-04-16T12:46:44.964Z,39.01
2023-04-16T12:49:12.204Z,38.99
2023-04-16T12:51:39.329Z,38.48
2023-04-16T12:54:09.897Z,37.40
2023-04-16T12:56:36.868Z,36.95
2023-04-16T12:59:03.947Z,35.95
2023-04-16T13:01:31.041Z,35.50
2023-04-16T13:03:58.185Z,35.12
2023-04-16T13:06:26.339Z,35.41
2023-04-16T13:08:53.187Z,34.29
2023-04-16T13:11:20.560Z,33.83
2023-04-16T13:13:47.469Z,33.79
2023-04-16T13:16:14.475Z,34.16
2023-04-16T13:18:41.614Z,34.91
2023-04-16T13:21:08.648Z,35.72
2023-04-16T13:23:35.823Z,36.79
2023-04-16T13:26:02.774Z,36.21
2023-04-16T13:28:29.642Z,36.05
2023-04-16T13:30:56.627Z,36.34
2023-04-16T13:33:23.895Z,36.11
2023-04-16T13:35:50.968Z,35.58
2023-04-16T13:38:18.227Z,33.86
2023-04-16T13:40:45.217Z,33.73
2023-04-16T13:43:13.760Z,33.09
2023-04-16T13:45:40.964Z,32.56
2023-04-16T13:48:07.908Z,31.95
2023-04-16T13:50:35.652Z,31.61
2023-04-16T13:53:02.496Z,32.08
2023-04-16T13:55:31.965Z,32.26
2023-04-16T13:57:58.958Z,32.96
2023-04-16T14:00:27.386Z,32.86
2023-04-16T14:02:54.450Z,33.70
2023-04-16T14:05:24.123Z,33.92
2023-04-16T14:07:52.752Z,34.54
2023-04-16T14:10:19.830Z,35.19
2023-04-16T14:12:46.795Z,35.34
2023-04-16T14:15:14.761Z,36.47
2023-04-16T14:17:44.669Z,37.54
2023-04-16T14:20:13.796Z,38.20
2023-04-16T14:22:42.544Z,39.52
2023-04-16T14:25:09.710Z,39.64
2023-04-16T14:27:36.666Z,40.36
2023-04-16T14:30:04.700Z,40.39
2023-04-16T14:32:31.641Z,40.42
2023-04-16T14:34:58.633Z,40.74
2023-04-16T14:37:26.326Z,41.29
2023-04-16T14:39:54.135Z,41.40
2023-04-16T14:42:21.067Z,41.87
2023-04-16T14:44:48.216Z,42.87
2023-04-16T14:47:15.145Z,42.00
2023-04-16T14:49:41.994Z,42.54
2023-04-16T14:52:08.933Z,43.06
2023-04-16T14:54:36.286Z,43.30
2023-04-16T14:57:03.558Z,43.34
2023-04-16T14:59:31.140Z,42.74
2023-04-16T15:02:00.447Z,43.25
2023-04-16T15:04:27.814Z,42.84
2023-04-16T15:06:58.854Z,42.37
2023-04-16T15:09:28.447Z,42.39
2023-04-16T15:11:55.433Z,42.18
2023-04-16T15:14:22.431Z,41.87
2023-04-16T15:16:49.776Z,41.68
2023-04-16T15:19:16.711Z,41.43
2023-04-16T15:21:44.847Z,41.47
2023-04-16T15:24:13.120Z,41.59
2023-04-16T15:26:41.383Z,41.85
2023-04-16T15:29:08.272Z,42.24
2023-04-16T15:31:35.147Z,42.13
2023-04-16T15:34:02.146Z,42.61
2023-04-16T15:36:29.011Z,43.24
2023-04-16T15:38:55.968Z,43.82
2023-04-16T15:41:23.214Z,44.30
2023-04-16T15:43:50.451Z,44.79
2023-04-16T15:46:17.390Z,45.28
2023-04-16T15:48:44.493Z,45.42
2023-04-16T15:51:11.958Z,45.96
2023-04-16T15:53:39.069Z,45.89
2023-04-16T15:56:06.250Z,45.88
2023-04-16T15:58:33.176Z,46.13
2023-04-16T16:01:00.026Z,46.38
2023-04-16T16:03:27.493Z,46.96
2023-04-16T16:05:54.454Z,47.87
2023-04-16T16:08:21.441Z,48.25
2023-04-16T16:10:48.792Z,48.28
2023-04-16T16:13:18.252Z,48.73
2023-04-16T16:15:45.497Z,49.71
2023-04-16T16:18:12.369Z,49.74
2023-04-16T16:20:40.563Z,50.18
2023-04-16T16:23:07.821Z,49.71
2023-04-16T16:25:34.989Z,49.54
2023-04-16T16:28:04.261Z,49.82
2023-04-16T16:30:32.740Z,50.83
2023-04-16T16:32:59.724Z,51.54
2023-04-16T16:35:26.805Z,52.28
2023-04-16T16:37:57.378Z,53.57
2023-04-16T16:40:24.500Z,54.39
2023-04-16T16:42:51.483Z,54.33
2023-04-16T16:45:18.617Z,53.84
2023-04-16T16:47:45.547Z,53.94
2023-04-16T16:50:12.714Z,54.08
2023-04-16T16:52:39.581Z,54.00
2023-04-16T16:55:10.911Z,53.94
2023-04-16T16:57:39.046Z,55.29
2023-04-16T17:00:16.319Z,55.30
2023-04-16T17:02:43.731Z,55.10
2023-04-16T17:05:11.106Z,55.10
2023-04-16T17:07:38.531Z,55.89
2023-04-16T17:10:06.996Z,56.67
2023-04-16T17:12:34.039Z,57.61
2023-04-16T17:15:01.617Z,57.76
2023-04-16T17:17:29.252Z,58.15
2023-04-16T17:19:56.205Z,58.41
2023-04-16T17:22:23.096Z,58.70
2023-04-16T17:24:49.929Z,59.15
2023-04-16T17:27:16.813Z,59.27
2023-04-16T17:29:45.405Z,59.59
2023-04-16T17:32:12.388Z,60.98
2023-04-16T17:34:39.245Z,62.17
2023-04-16T17:37:06.130Z,62.38
2023-04-16T17:39:33.100Z,64.08
2023-04-16T17:42:01.341Z,64.48
2023-04-16T17:44:28.282Z,64.07
2023-04-16T17:46:55.279Z,64.19
2023-04-16T17:49:22.163Z,64.90
2023-04-16T17:51:49.275Z,64.76
2023-04-16T17:54:16.227Z,64.33
2023-04-16T17:56:43.281Z,65.05
2023-04-16T17:59:10.703Z,64.99
2023-04-16T18:01:37.812Z,65.52
2023-04-16T18:04:05.053Z,64.80
2023-04-16T18:06:32.375Z,65.53
2023-04-16T18:08:59.278Z,65.49
2023-04-16T18:11:28.013Z,65.81
2023-04-16T18:13:55.968Z,66.23
2023-04-16T18:16:23.035Z,65.56
2023-04-16T18:18:50.000Z,66.39
2023-04-16T18:21:16.881Z,66.78
2023-04-16T18:23:43.755Z,67.97
2023-04-16T18:26:11.268Z,67.81
2023-04-16T18:28:39.289Z,68.18
2023-04-16T18:31:07.813Z,67.97
2023-04-16T18:33:54.074Z,68.56
2023-04-16T18:36:21.757Z,68.70
2023-04-16T18:38:59.995Z,69.08
2023-04-16T18:41:28.438Z,69.58
2023-04-16T18:43:55.456Z,69.20
2023-04-16T18:46:22.388Z,69.14
2023-04-16T18:48:49.370Z,70.00
2023-04-16T18:51:16.827Z,69.39
2023-04-16T18:53:45.705Z,70.19
2023-04-16T18:56:13.032Z,70.66
2023-04-16T18:58:40.089Z,70.91
2023-04-16T19:01:11.312Z,70.42
2023-04-16T19:03:38.858Z,69.92
2023-04-16T19:06:06.630Z,70.04
2023-04-16T19:08:33.605Z,70.88
2023-04-16T19:11:01.584Z,71.20
2023-04-16T19:13:30.395Z,70.35
2023-04-16T19:16:01.845Z,71.13
2023-04-16T19:18:28.824Z,71.10
2023-04-16T19:21:01.096Z,72.09
2023-04-16T19:23:29.436Z,72.60
2023-04-16T19:25:57.084Z,73.57
2023-04-16T19:28:26.558Z,73.42
2023-04-16T19:30:54.123Z,72.66
2023-04-16T19:33:21.248Z,73.53
2023-04-16T19:35:48.245Z,73.38
2023-04-16T19:38:15.675Z,73.80
2023-04-16T19:40:46.864Z,73.78
2023-04-16T19:43:15.141Z,73.62
2023-04-16T19:45:46.933Z,74.22
2023-04-16T19:48:15.838Z,73.90
2023-04-16T19:50:43.135Z,73.52
2023-04-16T19:53:10.835Z,73.48
2023-04-16T19:55:41.372Z,73.41
2023-04-16T19:58:08.967Z,74.01
2023-04-16T20:00:41.839Z,73.93
2023-04-16T20:03:09.375Z,73.68
2023-04-16T20:05:37.023Z,73.87
2023-04-16T20:08:04.025Z,73.62
2023-04-16T20:10:31.605Z,73.98
2023-04-16T20:12:58.704Z,74.27
2023-04-16T20:15:25.872Z,74.28
2023-04-16T20:17:53.433Z,75.20
2023-04-16T20:20:23.674Z,75.87
2023-04-16T20:22:51.325Z,75.18
2023-04-16T20:25:22.643Z,76.44
2023-04-16T20:27:49.586Z,76.44
2023-04-16T20:30:16.450Z,75.78
2023-04-16T20:32:43.412Z,75.72
2023-04-16T20:35:11.640Z,75.72
2023-04-16T20:37:39.250Z,75.73
2023-04-16T20:40:08.859Z,75.49
2023-04-16T20:42:35.869Z,75.60
2023-04-16T20:45:02.815Z,75.55
2023-04-16T20:47:31.071Z,75.34
2023-04-16T20:49:58.309Z,75.21
2023-04-16T20:52:25.479Z,75.70
2023-04-16T20:54:53.570Z,75.72
2023-04-16T20:57:21.730Z,76.06
2023-04-16T20:59:50.728Z,75.86
2023-04-16T21:02:17.838Z,75.60
2023-04-16T21:04:45.221Z,75.48
2023-04-16T21:07:12.292Z,75.41
2023-04-16T21:09:39.314Z,75.46
2023-04-16T21:12:07.238Z,75.08
2023-04-16T21:14:34.225Z,75.21
2023-04-16T21:17:01.207Z,74.80
2023-04-16T21:19:28.129Z,74.51
2023-04-16T21:21:56.478Z,74.52
2023-04-16T21:24:23.436Z,74.60
2023-04-16T21:26:50.530Z,74.57
2023-04-16T21:29:18.779Z,74.51
2023-04-16T21:31:46.038Z,74.50
2023-04-16T21:34:12.918Z,74.28
2023-04-16T21:36:39.964Z,74.28
2023-04-16T21:39:06.905Z,74.61
2023-04-16T21:41:33.986Z,74.67
2023-04-16T21:44:01.181Z,74.73
2023-04-16T21:46:28.266Z,74.95
2023-04-16T21:48:55.106Z,74.91
2023-04-16T21:51:29.214Z,75.05
2023-04-16T21:53:57.054Z,75.21
2023-04-16T21:56:25.080Z,75.38
2023-04-16T21:58:51.995Z,75.26
2023-04-16T22:01:18.985Z,74.98
2023-04-16T22:03:50.549Z,74.47
2023-04-16T22:06:18.014Z,74.20
2023-04-16T22:08:44.883Z,74.03
2023-04-16T22:11:12.169Z,74.19
2023-04-16T22:13:42.135Z,74.02
2023-04-16T22:16:11.586Z,73.86
2023-04-16T22:18:38.889Z,73.92
2023-04-16T22:21:05.838Z,74.09
2023-04-16T22:23:32.850Z,74.13
2023-04-16T22:25:59.714Z,74.02
2023-04-16T22:28:27.285Z,73.71
2023-04-16T22:30:54.176Z,73.73
2023-04-16T22:33:21.317Z,73.44
2023-04-16T22:35:48.330Z,73.61
2023-04-16T22:38:16.535Z,73.87
2023-04-16T22:40:43.466Z,74.02
2023-04-16T22:43:10.472Z,74.26
2023-04-16T22:45:37.624Z,74.23
2023-04-16T22:48:04.696Z,74.09
2023-04-16T22:50:33.082Z,73.86
2023-04-16T22:53:00.200Z,73.60
2023-04-16T22:55:27.237Z,73.62
2023-04-16T22:57:54.034Z,73.62
2023-04-16T23:00:21.248Z,73.53
2023-04-16T23:02:48.231Z,73.53
2023-04-16T23:05:15.168Z,74.02
2023-04-16T23:07:42.035Z,73.80
2023-04-16T23:10:09.160Z,73.67
2023-04-16T23:12:38.905Z,73.60
2023-04-16T23:15:07.650Z,73.73
2023-04-16T23:17:35.168Z,73.70
2023-04-16T23:20:02.494Z,73.50
2023-04-16T23:22:31.018Z,73.43
2023-04-16T23:24:57.849Z,73.15
2023-04-16T23:27:24.726Z,73.13
2023-04-16T23:29:51.637Z,73.08
2023-04-16T23:32:18.555Z,73.19
2023-04-16T23:34:45.753Z,72.99
2023-04-16T23:37:12.703Z,73.11
2023-04-16T23:39:39.641Z,73.03
2023-04-16T23:42:06.629Z,73.05
2023-04-16T23:44:33.598Z,73.36
2023-04-16T23:47:01.007Z,73.54
2023-04-16T23:49:28.118Z,73.47
2023-04-16T23:51:55.343Z,73.36
2023-04-16T23:54:22.285Z,73.27
2023-04-16T23:56:49.372Z,73.12
2023-04-16T23:59:16.933Z,72.97
